Terminal Aerodrome Forecast
Issued by NWS Mt. Holly, NJ

Current Version | Previous Version | Text Only | Print | Product List | Glossary On
Versions: 1 2 3 4 5 6 7 8 9 10 11 12 13 14 15 16 17
341
FTUS41 KPHI 261015 AAB
TAFABE
TAF AMD
KABE 261015Z 2610/2706 VRB02KT P6SM SCT015 BKN100
      TEMPO 2610/2612 4SM BR
     FM261200 26005KT P6SM SCT040
     FM261400 31008KT P6SM FEW050
     FM262300 34005KT P6SM SCT250=

USA.gov is the U.S. government's official web portal to all federal, state and local government web resources and services.